createdAt,value
2018-09-30T00:01:50.013Z,2.77
2018-09-30T00:04:18.142Z,2.40
2018-09-30T00:06:46.291Z,2.63
2018-09-30T00:09:14.431Z,2.30
2018-09-30T00:11:42.579Z,1.87
2018-09-30T00:14:10.726Z,2.50
2018-09-30T00:16:38.979Z,2.20
2018-09-30T00:19:07.123Z,2.20
2018-09-30T00:21:35.265Z,2.80
2018-09-30T00:24:08.908Z,2.80
2018-09-30T00:26:42.278Z,2.53
2018-09-30T00:29:10.423Z,2.37
2018-09-30T00:31:38.571Z,2.57
2018-09-30T00:34:12.099Z,2.53
2018-09-30T00:36:40.243Z,2.40
2018-09-30T00:39:08.392Z,2.10
2018-09-30T00:41:36.534Z,2.67
2018-09-30T00:44:04.674Z,2.50
2018-09-30T00:46:32.819Z,2.30
2018-09-30T00:49:00.962Z,2.80
2018-09-30T00:51:29.162Z,2.77
2018-09-30T00:53:57.323Z,2.30
2018-09-30T00:56:25.478Z,2.03
2018-09-30T00:58:53.643Z,2.80
2018-09-30T01:01:21.787Z,3.60
2018-09-30T01:03:49.929Z,2.37
2018-09-30T01:06:18.104Z,2.70
2018-09-30T01:08:46.250Z,2.27
2018-09-30T01:11:14.386Z,3.30
2018-09-30T01:13:42.543Z,3.77
2018-09-30T01:16:11.010Z,3.10
2018-09-30T01:18:39.190Z,2.87
2018-09-30T01:21:07.678Z,3.20
2018-09-30T01:23:36.014Z,3.23
2018-09-30T01:26:04.231Z,3.83
2018-09-30T01:28:32.458Z,2.90
2018-09-30T01:31:00.624Z,2.93
2018-09-30T01:33:29.016Z,2.57
2018-09-30T01:35:57.157Z,2.60
2018-09-30T01:38:25.390Z,2.53
2018-09-30T01:40:53.546Z,3.47
2018-09-30T01:43:21.726Z,2.70
2018-09-30T01:45:50.235Z,3.03
2018-09-30T01:48:18.458Z,2.80
2018-09-30T01:50:46.621Z,2.30
2018-09-30T01:53:14.799Z,2.27
2018-09-30T01:55:42.996Z,2.30
2018-09-30T01:58:11.202Z,2.93
2018-09-30T02:00:39.370Z,2.40
2018-09-30T02:03:07.558Z,2.77
2018-09-30T02:05:35.758Z,3.10
2018-09-30T02:08:03.952Z,2.53
2018-09-30T02:10:32.166Z,2.60
2018-09-30T02:13:00.358Z,2.87
2018-09-30T02:15:28.570Z,2.97
2018-09-30T02:17:56.753Z,3.00
2018-09-30T02:20:24.951Z,3.07
2018-09-30T02:22:53.425Z,4.03
2018-09-30T02:25:21.624Z,3.40
2018-09-30T02:27:49.812Z,2.37
2018-09-30T02:30:18.014Z,2.60
2018-09-30T02:32:46.195Z,2.93
2018-09-30T02:35:14.369Z,2.23
2018-09-30T02:37:42.573Z,2.97
2018-09-30T02:40:10.775Z,2.70
2018-09-30T02:42:38.952Z,3.27
2018-09-30T02:45:07.175Z,3.47
2018-09-30T02:47:35.350Z,3.10
2018-09-30T02:50:03.605Z,3.60
2018-09-30T02:52:31.846Z,3.90
2018-09-30T02:55:00.078Z,3.40
2018-09-30T02:57:28.310Z,3.60
2018-09-30T02:59:56.499Z,3.70
2018-09-30T03:02:24.698Z,4.20
2018-09-30T03:04:52.914Z,5.80
2018-09-30T03:07:26.593Z,6.00
2018-09-30T03:09:54.798Z,6.62
2018-09-30T03:12:22.975Z,6.62
2018-09-30T03:14:51.218Z,6.70
2018-09-30T03:17:19.423Z,7.00
2018-09-30T03:19:47.621Z,6.42
2018-09-30T03:22:15.831Z,4.50
2018-09-30T03:24:44.053Z,3.00
2018-09-30T03:27:12.274Z,3.80
2018-09-30T03:29:40.473Z,3.42
2018-09-30T03:32:08.697Z,3.92
2018-09-30T03:34:36.882Z,3.70
2018-09-30T03:37:05.133Z,3.58
2018-09-30T03:39:33.345Z,3.70
2018-09-30T03:42:01.513Z,3.42
2018-09-30T03:44:29.725Z,3.40
2018-09-30T03:46:57.875Z,2.57
2018-09-30T03:49:26.114Z,3.73
2018-09-30T03:51:54.282Z,3.40
2018-09-30T03:54:22.437Z,2.90
2018-09-30T03:56:50.667Z,3.10
2018-09-30T03:59:18.753Z,2.70
2018-09-30T04:01:46.919Z,4.77
2018-09-30T04:04:15.107Z,3.77
2018-09-30T04:06:43.277Z,3.90
2018-09-30T04:09:11.450Z,4.03
2018-09-30T04:11:39.633Z,3.37
2018-09-30T04:14:08.213Z,3.07
2018-09-30T04:16:36.380Z,2.63
2018-09-30T04:19:04.537Z,3.00
2018-09-30T04:21:33.017Z,3.17
2018-09-30T04:24:10.972Z,3.30
2018-09-30T04:26:40.229Z,4.10
2018-09-30T04:29:08.637Z,3.52
2018-09-30T04:31:36.869Z,3.83
2018-09-30T04:34:05.317Z,3.25
2018-09-30T04:36:34.461Z,3.33
2018-09-30T04:39:02.677Z,3.70
2018-09-30T04:41:31.221Z,3.30
2018-09-30T04:43:59.474Z,2.80
2018-09-30T04:46:27.833Z,3.40
2018-09-30T04:48:56.069Z,3.30
2018-09-30T04:51:24.245Z,3.50
2018-09-30T04:53:52.457Z,3.80
2018-09-30T04:56:20.630Z,3.27
2018-09-30T04:58:48.806Z,3.60
2018-09-30T05:01:16.973Z,2.60
2018-09-30T05:03:45.158Z,3.00
2018-09-30T05:06:13.369Z,3.15
2018-09-30T05:08:41.544Z,2.80
2018-09-30T05:11:09.744Z,2.90
2018-09-30T05:13:37.963Z,2.83
2018-09-30T05:16:06.218Z,2.92
2018-09-30T05:18:34.301Z,2.65
2018-09-30T05:21:02.489Z,2.50
2018-09-30T05:23:30.693Z,2.40
2018-09-30T05:25:58.874Z,2.90
2018-09-30T05:28:27.073Z,2.45
2018-09-30T05:30:55.240Z,2.70
2018-09-30T05:33:23.425Z,2.70
2018-09-30T05:35:51.638Z,2.25
2018-09-30T05:38:19.822Z,2.60
2018-09-30T05:40:48.051Z,2.70
2018-09-30T05:43:16.233Z,2.77
2018-09-30T05:45:44.446Z,2.70
2018-09-30T05:48:12.654Z,3.10
2018-09-30T05:50:40.878Z,2.70
2018-09-30T05:53:09.085Z,2.67
2018-09-30T05:55:37.325Z,2.70
2018-09-30T05:58:05.591Z,2.60
2018-09-30T06:00:33.728Z,2.72
2018-09-30T06:03:01.913Z,2.85
2018-09-30T06:05:30.118Z,3.00
2018-09-30T06:07:58.346Z,2.87
2018-09-30T06:10:26.538Z,2.90
2018-09-30T06:12:54.781Z,3.10
2018-09-30T06:15:23.060Z,2.70
2018-09-30T06:17:51.264Z,2.90
2018-09-30T06:20:19.459Z,2.90
2018-09-30T06:22:47.694Z,2.70
2018-09-30T06:25:15.874Z,2.60
2018-09-30T06:27:44.102Z,2.85
2018-09-30T06:30:12.285Z,3.30
2018-09-30T06:32:40.542Z,3.08
2018-09-30T06:35:08.741Z,3.02
2018-09-30T06:37:36.958Z,3.52
2018-09-30T06:40:05.165Z,3.50
2018-09-30T06:42:33.342Z,3.17
2018-09-30T06:45:01.570Z,3.33
2018-09-30T06:47:29.745Z,3.53
2018-09-30T06:49:57.896Z,3.73
2018-09-30T06:52:26.179Z,3.73
2018-09-30T06:54:54.374Z,3.77
2018-09-30T06:57:22.602Z,4.30
2018-09-30T06:59:50.794Z,3.60
2018-09-30T07:02:19.025Z,5.93
2018-09-30T07:04:47.305Z,4.80
2018-09-30T07:07:15.480Z,3.67
2018-09-30T07:09:43.645Z,4.00
2018-09-30T07:12:11.888Z,3.00
2018-09-30T07:14:40.106Z,3.00
2018-09-30T07:17:08.292Z,3.97
2018-09-30T07:19:36.470Z,3.20
2018-09-30T07:22:04.755Z,3.80
2018-09-30T07:24:32.897Z,3.20
2018-09-30T07:27:01.102Z,3.13
2018-09-30T07:29:29.290Z,3.20
2018-09-30T07:31:57.471Z,3.90
2018-09-30T07:34:26.069Z,3.50
2018-09-30T07:36:54.241Z,3.33
2018-09-30T07:39:22.440Z,3.27
2018-09-30T07:41:50.565Z,3.40
2018-09-30T07:44:18.778Z,3.53
2018-09-30T07:46:46.956Z,3.40
2018-09-30T07:49:15.098Z,3.43
2018-09-30T07:51:43.253Z,4.20
2018-09-30T08:16:18.981Z,5.77
2018-09-30T08:18:47.120Z,6.90
2018-09-30T08:21:15.298Z,7.00
2018-09-30T08:23:43.478Z,7.50
2018-09-30T08:26:11.633Z,7.20
2018-09-30T08:28:39.857Z,7.30
2018-09-30T08:31:08.098Z,6.95
2018-09-30T08:33:36.467Z,6.70
2018-09-30T08:36:09.067Z,7.20
2018-09-30T08:38:38.233Z,6.50
2018-09-30T08:41:07.743Z,7.12
2018-09-30T08:43:37.328Z,7.50
2018-09-30T08:46:05.600Z,7.40
2018-09-30T08:48:33.823Z,6.53
2018-09-30T08:51:02.005Z,7.40
2018-09-30T08:53:30.226Z,7.90
2018-09-30T08:55:59.241Z,7.40
2018-09-30T08:58:28.141Z,8.03
2018-09-30T09:00:56.369Z,8.15
2018-09-30T09:03:25.166Z,7.80
2018-09-30T09:05:53.422Z,7.30
2018-09-30T09:08:21.652Z,7.62
2018-09-30T09:10:49.860Z,7.60
2018-09-30T09:13:18.097Z,7.70
2018-09-30T09:15:46.297Z,8.08
2018-09-30T09:18:14.963Z,7.70
2018-09-30T09:20:43.139Z,8.07
2018-09-30T09:23:11.374Z,7.83
2018-09-30T09:25:40.392Z,8.00
2018-09-30T09:28:08.825Z,7.97
2018-09-30T09:30:37.038Z,8.48
2018-09-30T09:33:05.301Z,8.95
2018-09-30T09:35:33.486Z,8.50
2018-09-30T09:38:01.694Z,8.28
2018-09-30T09:40:29.920Z,8.40
2018-09-30T09:42:58.130Z,9.45
2018-09-30T09:45:26.306Z,9.93
2018-09-30T09:47:54.486Z,9.90
2018-09-30T09:50:22.669Z,8.97
2018-09-30T09:52:50.902Z,10.90
2018-09-30T09:55:19.072Z,8.50
2018-09-30T09:57:47.257Z,8.67
2018-09-30T10:00:20.899Z,10.07
2018-09-30T10:02:49.093Z,12.10
2018-09-30T10:05:17.323Z,13.55
2018-09-30T10:07:45.475Z,15.05
2018-09-30T10:10:13.652Z,13.00
2018-09-30T10:12:41.831Z,12.60
2018-09-30T10:15:10.017Z,14.57
2018-09-30T10:17:38.173Z,12.70
2018-09-30T10:20:06.369Z,15.43
2018-09-30T10:22:34.526Z,13.87
2018-09-30T10:25:02.694Z,13.83
2018-09-30T10:27:30.849Z,15.10
2018-09-30T10:29:59.053Z,13.20
2018-09-30T10:32:27.308Z,13.40
2018-09-30T10:34:55.725Z,13.30
2018-09-30T10:37:23.886Z,12.50
2018-09-30T10:39:52.138Z,13.63
2018-09-30T10:42:20.345Z,13.57
2018-09-30T10:44:48.552Z,12.10
2018-09-30T10:47:16.717Z,11.90
2018-09-30T10:49:44.994Z,12.67
2018-09-30T10:52:13.173Z,15.33
2018-09-30T10:54:41.385Z,12.00
2018-09-30T10:57:09.556Z,13.10
2018-09-30T10:59:37.756Z,12.80
2018-09-30T11:02:05.974Z,11.43
2018-09-30T11:04:34.190Z,12.40
2018-09-30T11:07:02.708Z,13.27
2018-09-30T11:09:30.944Z,12.83
2018-09-30T11:11:59.127Z,12.07
2018-09-30T11:14:27.308Z,10.50
2018-09-30T11:16:55.522Z,11.90
2018-09-30T11:19:23.749Z,12.10
2018-09-30T11:21:52.219Z,12.77
2018-09-30T11:24:20.410Z,12.90
2018-09-30T11:26:48.602Z,11.80
2018-09-30T11:29:16.780Z,11.30
2018-09-30T11:31:45.008Z,12.60
2018-09-30T11:34:13.153Z,11.90
2018-09-30T11:36:41.357Z,12.23
2018-09-30T11:39:10.542Z,12.50
2018-09-30T11:41:38.697Z,13.47
2018-09-30T11:44:06.945Z,10.50
2018-09-30T11:46:35.114Z,12.43
2018-09-30T11:49:03.265Z,14.10
2018-09-30T11:51:31.461Z,12.50
2018-09-30T11:53:59.649Z,11.47
2018-09-30T11:56:27.875Z,13.00
2018-09-30T11:58:56.029Z,12.20
2018-09-30T12:01:24.331Z,10.90
2018-09-30T12:03:52.393Z,12.20
2018-09-30T12:06:20.593Z,10.50
2018-09-30T12:08:48.745Z,13.00
2018-09-30T12:11:16.924Z,11.70
2018-09-30T12:13:45.105Z,11.40
2018-09-30T12:16:13.302Z,10.97
2018-09-30T12:18:41.557Z,11.80
2018-09-30T12:21:09.724Z,11.33
2018-09-30T12:23:37.905Z,10.20
2018-09-30T12:26:06.117Z,10.60
2018-09-30T12:28:34.281Z,11.90
2018-09-30T12:31:02.454Z,9.67
2018-09-30T12:33:30.608Z,10.97
2018-09-30T12:35:58.778Z,10.67
2018-09-30T12:38:26.947Z,10.47
2018-09-30T12:40:55.145Z,10.77
2018-09-30T12:43:23.320Z,9.43
2018-09-30T12:45:51.525Z,11.33
2018-09-30T12:48:19.704Z,10.13
2018-09-30T12:50:47.880Z,9.57
2018-09-30T12:53:16.069Z,9.70
2018-09-30T12:55:44.271Z,10.00
2018-09-30T12:58:12.513Z,11.07
2018-09-30T13:00:40.661Z,8.90
2018-09-30T13:03:08.844Z,8.23
2018-09-30T13:05:37.068Z,9.30
2018-09-30T13:08:05.257Z,9.47
2018-09-30T13:10:33.446Z,9.77
2018-09-30T13:13:01.645Z,9.93
2018-09-30T13:15:30.109Z,9.93
2018-09-30T13:17:58.297Z,8.37
2018-09-30T13:20:26.524Z,7.70
2018-09-30T13:22:54.688Z,7.97
2018-09-30T13:25:22.894Z,7.60
2018-09-30T13:27:51.073Z,8.47
2018-09-30T13:30:19.297Z,6.23
2018-09-30T13:32:47.503Z,6.03
2018-09-30T13:35:15.674Z,7.20
2018-09-30T13:37:43.886Z,7.47
2018-09-30T13:40:12.163Z,6.77
2018-09-30T13:42:40.238Z,6.50
2018-09-30T13:45:08.693Z,6.70
2018-09-30T13:47:36.886Z,6.83
2018-09-30T13:50:05.137Z,6.20
2018-09-30T13:52:33.305Z,6.73
2018-09-30T13:55:01.467Z,6.23
2018-09-30T13:57:29.624Z,6.07
2018-09-30T13:59:57.788Z,7.10
2018-09-30T14:02:25.964Z,6.30
2018-09-30T14:04:54.145Z,5.73
2018-09-30T14:07:22.324Z,6.10
2018-09-30T14:09:50.481Z,5.90
2018-09-30T14:12:18.641Z,5.57
2018-09-30T14:14:46.812Z,6.70
2018-09-30T14:17:14.964Z,5.73
2018-09-30T14:19:43.154Z,6.00
2018-09-30T14:22:11.296Z,6.80
2018-09-30T14:24:39.466Z,5.70
2018-09-30T14:27:07.690Z,6.10
2018-09-30T14:29:35.789Z,6.40
2018-09-30T14:32:03.973Z,5.47
2018-09-30T14:34:32.138Z,4.90
2018-09-30T14:37:00.290Z,5.23
2018-09-30T14:39:28.460Z,9.33
2018-09-30T14:41:56.605Z,4.60
2018-09-30T14:44:24.776Z,5.47
2018-09-30T14:46:52.920Z,5.60
2018-09-30T14:49:21.122Z,7.00
2018-09-30T14:51:49.267Z,4.77
2018-09-30T14:54:17.515Z,5.20
2018-09-30T14:56:45.613Z,4.47
2018-09-30T14:59:13.792Z,5.20
2018-09-30T15:01:41.940Z,5.57
2018-09-30T15:04:10.109Z,5.20
2018-09-30T15:06:38.272Z,5.27
2018-09-30T15:09:08.194Z,4.83
2018-09-30T15:11:36.386Z,4.63
2018-09-30T15:14:04.642Z,5.47
2018-09-30T15:16:32.841Z,5.03
2018-09-30T15:19:01.090Z,5.93
2018-09-30T15:21:29.278Z,4.97
2018-09-30T15:23:57.506Z,4.90
2018-09-30T15:26:25.690Z,4.63
2018-09-30T15:28:53.874Z,4.93
2018-09-30T15:31:22.033Z,5.37
2018-09-30T15:33:50.193Z,6.13
2018-09-30T15:36:18.352Z,4.90
2018-09-30T15:38:46.877Z,5.30
2018-09-30T15:41:15.042Z,5.50
2018-09-30T15:43:43.222Z,3.70
2018-09-30T15:46:11.402Z,5.00
2018-09-30T15:48:39.593Z,3.83
2018-09-30T15:51:07.779Z,3.77
2018-09-30T15:53:36.219Z,3.20
2018-09-30T15:56:04.373Z,3.87
2018-09-30T15:58:32.533Z,5.10
2018-09-30T16:01:00.722Z,3.30
2018-09-30T16:03:28.875Z,3.63
2018-09-30T16:05:57.052Z,3.70
2018-09-30T16:08:25.220Z,3.83
2018-09-30T16:10:53.403Z,4.07
2018-09-30T16:13:21.590Z,4.27
2018-09-30T16:15:49.784Z,3.80
2018-09-30T16:18:17.978Z,5.30
2018-09-30T16:20:46.174Z,4.97
2018-09-30T16:23:14.330Z,4.10
2018-09-30T16:25:42.496Z,3.90
2018-09-30T16:28:10.709Z,3.77
2018-09-30T16:30:38.850Z,3.97
2018-09-30T16:33:07.000Z,4.30
2018-09-30T16:35:35.157Z,3.53
2018-09-30T16:38:03.324Z,4.10
2018-09-30T16:40:31.508Z,3.97
2018-09-30T16:42:59.681Z,4.23
2018-09-30T16:45:27.870Z,4.20
2018-09-30T16:47:56.045Z,4.40
2018-09-30T16:50:24.222Z,4.63
2018-09-30T16:52:52.469Z,4.40
2018-09-30T16:55:20.661Z,4.60
2018-09-30T16:57:48.846Z,4.00
2018-09-30T17:00:17.034Z,3.90
2018-09-30T17:02:45.213Z,3.60
2018-09-30T17:05:13.443Z,3.83
2018-09-30T17:07:41.710Z,3.80
2018-09-30T17:10:09.902Z,5.30
2018-09-30T17:12:38.129Z,6.00
2018-09-30T17:15:06.354Z,4.83
2018-09-30T17:17:34.547Z,5.60
2018-09-30T17:20:02.706Z,5.73
2018-09-30T17:22:30.860Z,5.00
2018-09-30T17:24:59.052Z,4.90
2018-09-30T17:27:27.221Z,5.80
2018-09-30T17:29:55.369Z,5.90
2018-09-30T17:35:54.958Z,5.07
2018-09-30T17:38:24.170Z,5.10
2018-09-30T17:40:52.393Z,7.13
2018-09-30T17:43:20.569Z,8.80
2018-09-30T17:45:48.738Z,5.97
2018-09-30T17:48:16.932Z,5.03
2018-09-30T17:50:45.121Z,5.00
2018-09-30T17:53:13.521Z,4.57
2018-09-30T17:55:41.709Z,4.67
2018-09-30T17:58:09.946Z,4.47
2018-09-30T18:00:38.102Z,5.27
2018-09-30T18:03:06.344Z,5.20
2018-09-30T18:05:34.733Z,5.60
2018-09-30T18:08:02.892Z,5.00
2018-09-30T18:10:31.072Z,4.63
2018-09-30T18:12:59.232Z,5.40
2018-09-30T18:15:27.389Z,4.80
2018-09-30T18:17:55.558Z,5.20
2018-09-30T18:20:23.709Z,5.17
2018-09-30T18:22:51.902Z,4.80
2018-09-30T18:25:20.057Z,5.07
2018-09-30T18:27:48.221Z,4.73
2018-09-30T18:30:16.378Z,4.40
2018-09-30T18:32:44.566Z,5.20
2018-09-30T18:35:12.764Z,4.97
2018-09-30T18:37:40.927Z,4.97
2018-09-30T18:40:09.085Z,4.60
2018-09-30T18:42:37.246Z,5.10
2018-09-30T18:45:05.418Z,4.67
2018-09-30T18:47:33.589Z,5.07
2018-09-30T18:50:01.778Z,5.03
2018-09-30T18:52:29.937Z,5.50
2018-09-30T18:54:58.137Z,5.20
2018-09-30T18:57:26.323Z,5.07
2018-09-30T18:59:54.534Z,5.60
2018-09-30T19:02:22.989Z,6.03
2018-09-30T19:04:51.154Z,5.20
2018-09-30T19:07:19.591Z,6.60
2018-09-30T19:09:47.750Z,5.87
2018-09-30T19:12:16.733Z,5.80
2018-09-30T19:14:44.898Z,6.93
2018-09-30T19:17:13.070Z,7.10
2018-09-30T19:19:41.237Z,6.40
2018-09-30T19:22:09.418Z,6.80
2018-09-30T19:24:37.582Z,7.10
2018-09-30T19:27:05.845Z,12.57
2018-09-30T19:29:34.017Z,9.13
2018-09-30T19:32:02.205Z,10.80
2018-09-30T19:34:30.367Z,13.73
2018-09-30T19:36:58.607Z,10.20
2018-09-30T19:39:26.785Z,8.90
2018-09-30T19:41:54.957Z,7.70
2018-09-30T19:44:23.171Z,7.70
2018-09-30T19:46:51.350Z,8.73
2018-09-30T19:49:19.546Z,8.73
2018-09-30T19:51:47.742Z,9.93
2018-09-30T19:54:15.921Z,8.03
2018-09-30T19:56:44.129Z,5.83
2018-09-30T19:59:12.317Z,6.33
2018-09-30T20:01:40.629Z,6.47
2018-09-30T20:04:09.666Z,6.20
2018-09-30T20:06:37.874Z,5.40
2018-09-30T20:09:07.539Z,5.20
2018-09-30T20:11:35.816Z,5.67
2018-09-30T20:14:04.001Z,6.37
2018-09-30T20:16:32.169Z,6.43
2018-09-30T20:19:00.360Z,6.33
2018-09-30T20:21:28.604Z,6.70
2018-09-30T20:23:56.870Z,6.40
2018-09-30T20:26:25.119Z,5.73
2018-09-30T20:28:54.013Z,6.53
2018-09-30T20:31:22.188Z,6.07
2018-09-30T20:33:50.393Z,6.37
2018-09-30T20:36:18.597Z,6.60
2018-09-30T20:38:46.781Z,7.20
2018-09-30T20:41:14.961Z,5.23
2018-09-30T20:43:43.158Z,6.30
2018-09-30T20:46:11.334Z,6.63
2018-09-30T20:48:39.548Z,6.40
2018-09-30T20:51:07.702Z,6.63
2018-09-30T20:53:35.882Z,6.17
2018-09-30T20:56:04.053Z,5.80
2018-09-30T20:58:32.266Z,5.93
2018-09-30T21:01:00.447Z,6.33
2018-09-30T21:03:28.668Z,5.80
2018-09-30T21:06:31.109Z,6.30
2018-09-30T21:08:59.294Z,6.40
2018-09-30T21:11:27.532Z,5.80
2018-09-30T21:13:55.770Z,5.50
2018-09-30T21:16:23.939Z,5.57
2018-09-30T21:18:52.126Z,5.80
2018-09-30T21:21:20.325Z,4.93
2018-09-30T21:23:48.507Z,5.67
2018-09-30T21:26:16.678Z,5.87
2018-09-30T21:28:44.865Z,6.20
2018-09-30T21:31:13.074Z,6.97
2018-09-30T21:33:41.289Z,5.93
2018-09-30T21:36:09.483Z,5.83
2018-09-30T21:38:37.662Z,6.23
2018-09-30T21:41:06.001Z,5.43
2018-09-30T21:43:34.163Z,5.67
2018-09-30T21:46:02.324Z,5.83
2018-09-30T21:48:30.486Z,6.07
2018-09-30T21:50:58.632Z,6.00
2018-09-30T21:53:26.796Z,6.47
2018-09-30T21:55:54.956Z,6.30
2018-09-30T21:58:23.117Z,5.53
2018-09-30T22:00:58.342Z,6.30
2018-09-30T22:03:26.941Z,6.50
2018-09-30T22:05:55.104Z,6.03
2018-09-30T22:08:23.268Z,5.83
2018-09-30T22:10:51.455Z,6.10
2018-09-30T22:13:19.629Z,6.53
2018-09-30T22:15:47.842Z,5.93
2018-09-30T22:18:16.009Z,6.43
2018-09-30T22:20:44.175Z,6.37
2018-09-30T22:23:12.337Z,7.03
2018-09-30T22:25:40.496Z,5.70
2018-09-30T22:28:08.655Z,6.83
2018-09-30T22:30:36.881Z,6.40
2018-09-30T22:33:05.073Z,6.27
2018-09-30T22:35:33.278Z,6.10
2018-09-30T22:38:01.462Z,6.10
2018-09-30T22:40:29.659Z,6.77
2018-09-30T22:42:57.829Z,7.00
2018-09-30T22:45:25.998Z,6.90
2018-09-30T22:47:54.153Z,9.83
2018-09-30T22:50:22.351Z,6.33
2018-09-30T22:52:50.508Z,7.00
2018-09-30T22:55:18.683Z,7.03
2018-09-30T22:57:46.853Z,6.43
2018-09-30T23:00:15.021Z,6.90
2018-09-30T23:02:43.172Z,7.57
2018-09-30T23:05:11.361Z,6.30
2018-09-30T23:07:39.545Z,6.97
2018-09-30T23:10:09.515Z,6.67
2018-09-30T23:12:37.702Z,6.40
2018-09-30T23:15:05.893Z,7.27
2018-09-30T23:17:34.086Z,6.77
2018-09-30T23:20:02.393Z,7.00
2018-09-30T23:22:30.578Z,7.07
2018-09-30T23:24:58.902Z,6.80
2018-09-30T23:27:27.065Z,7.90
2018-09-30T23:29:55.220Z,7.00
2018-09-30T23:32:23.411Z,7.50
2018-09-30T23:34:51.557Z,7.60
2018-09-30T23:37:19.748Z,6.40
2018-09-30T23:39:47.897Z,7.53
2018-09-30T23:42:16.062Z,8.47
2018-09-30T23:44:44.223Z,7.80
2018-09-30T23:47:12.381Z,7.33
2018-09-30T23:49:40.532Z,8.10
2018-09-30T23:52:08.705Z,6.90
2018-09-30T23:54:36.871Z,8.13
2018-09-30T23:57:05.245Z,7.40
2018-09-30T23:59:33.426Z,7.40
